Time;durP1;ratioP1;P1;durP2;ratioP2;P2;SDS_P1;SDS_P2;PMS_P1;PMS_P2;Temp;Humidity;BMP_temperature;BMP_pressure;BME280_temperature;BME280_humidity;BME280_pressure;Samples;Min_cycle;Max_cycle;Signal;HPM_P1;HPM_P2
2021/07/26 00:01:30;;;;;;;9.50;8.80;;;;;;;19.86;85.23;99921.09;5025184;28;20268;-72
2021/07/26 00:03:56;;;;;;;8.67;8.07;;;;;;;19.58;84.89;99946.69;5025305;28;20775;-74
2021/07/26 00:06:22;;;;;;;8.93;8.27;;;;;;;19.48;85.68;99908.53;5025688;28;20217;-73
2021/07/26 00:08:49;;;;;;;8.60;8.00;;;;;;;19.50;85.46;99910.13;5024471;28;20241;-74
2021/07/26 00:11:15;;;;;;;9.80;9.10;;;;;;;19.44;85.91;99900.78;5024719;28;20244;-74
2021/07/26 00:13:42;;;;;;;9.43;8.63;;;;;;;19.38;86.75;99872.03;5024030;28;20632;-74
2021/07/26 00:16:09;;;;;;;9.40;8.70;;;;;;;19.45;87.35;99843.41;5024943;28;20216;-72
2021/07/26 00:18:37;;;;;;;8.73;8.10;;;;;;;19.47;87.23;99843.31;5024938;28;20222;-73
2021/07/26 00:21:03;;;;;;;9.30;8.60;;;;;;;19.50;87.11;99854.53;5023277;28;20255;-75
2021/07/26 00:23:30;;;;;;;9.17;8.37;;;;;;;19.49;87.60;99844.91;5024139;28;20214;-74
2021/07/26 00:25:56;;;;;;;8.93;8.20;;;;;;;19.56;87.32;99855.91;5024070;28;20771;-73
2021/07/26 00:28:23;;;;;;;8.60;7.80;;;;;;;19.62;86.86;99882.00;5024511;28;20235;-74
2021/07/26 00:30:49;;;;;;;9.33;8.57;;;;;;;19.64;86.57;99901.28;5024057;28;20623;-73
2021/07/26 00:34:05;;;;;;;8.50;7.90;;;;;;;19.62;86.43;99912.00;5024637;28;20210;-74
2021/07/26 00:36:33;;;;;;;8.63;8.03;;;;;;;19.60;86.16;99920.97;5024951;28;20237;-74
2021/07/26 00:38:59;;;;;;;8.50;7.80;;;;;;;19.61;85.91;99918.22;5024557;28;20405;-75
2021/07/26 00:41:26;;;;;;;8.30;7.50;;;;;;;19.60;86.35;99898.00;5023972;28;20677;-73
2021/07/26 00:43:52;;;;;;;8.67;7.97;;;;;;;19.55;86.93;99878.06;5023938;28;20268;-71
2021/07/26 00:46:19;;;;;;;8.50;7.63;;;;;;;19.56;87.23;99861.22;5024672;28;20213;-76
2021/07/26 00:48:46;;;;;;;8.37;7.77;;;;;;;19.62;86.79;99884.63;5024206;28;20231;-73
2021/07/26 00:51:13;;;;;;;8.93;8.07;;;;;;;19.65;86.67;99897.69;5024212;28;20233;-74
2021/07/26 00:53:41;;;;;;;8.87;8.17;;;;;;;19.69;87.43;99878.00;5022730;28;20212;-73
2021/07/26 00:56:08;;;;;;;9.53;8.83;;;;;;;19.53;86.21;99912.56;5024261;28;20205;-76
2021/07/26 00:58:35;;;;;;;10.03;9.30;;;;;;;19.09;86.09;99942.72;5023561;28;20243;-76
2021/07/26 01:01:01;;;;;;;9.87;9.13;;;;;;;19.16;85.34;99964.34;5023915;28;20268;-72
2021/07/26 01:03:28;;;;;;;8.87;8.07;;;;;;;19.18;85.81;99952.72;5023536;28;20211;-75
2021/07/26 01:05:54;;;;;;;9.10;8.50;;;;;;;19.20;86.45;99928.81;5024236;28;20242;-74
2021/07/26 01:08:21;;;;;;;8.60;8.10;;;;;;;19.19;85.94;99932.41;5023538;28;20232;-72
2021/07/26 01:10:49;;;;;;;8.50;8.00;;;;;;;19.19;85.87;99953.59;5023487;28;20213;-74
2021/07/26 01:13:16;;;;;;;7.93;7.43;;;;;;;19.27;85.53;99958.41;5023096;28;20294;-73
2021/07/26 01:15:42;;;;;;;8.13;7.53;;;;;;;19.28;85.79;99958.28;5023656;28;20255;-74
2021/07/26 01:18:20;;;;;;;8.53;7.73;;;;;;;19.25;85.96;99942.59;5023957;28;20286;-72
2021/07/26 01:20:49;;;;;;;8.73;8.07;;;;;;;19.30;86.23;99943.16;5023414;28;20220;-72
2021/07/26 01:23:15;;;;;;;9.60;8.70;;;;;;;19.32;86.77;99920.09;5022891;28;20251;-73
2021/07/26 01:25:42;;;;;;;9.47;8.77;;;;;;;19.34;86.68;99920.00;5023268;28;20208;-73
2021/07/26 01:28:08;;;;;;;9.00;8.13;;;;;;;19.38;86.87;99905.63;5023262;28;20326;-73
2021/07/26 01:30:34;;;;;;;8.87;8.00;;;;;;;19.38;87.30;99887.94;5023029;28;20268;-75
2021/07/26 01:33:01;;;;;;;8.90;8.20;;;;;;;19.43;87.07;99887.66;5022664;28;20232;-74
2021/07/26 01:35:27;;;;;;;8.47;7.70;;;;;;;19.47;86.84;99893.59;5023590;28;20263;-71
2021/07/26 01:37:55;;;;;;;9.20;8.50;;;;;;;19.48;87.05;99900.59;5023302;28;20614;-75
2021/07/26 01:40:21;;;;;;;9.53;8.83;;;;;;;19.52;87.25;99899.44;5024180;28;20217;-75
2021/07/26 01:42:48;;;;;;;8.30;7.70;;;;;;;19.49;86.93;99908.44;5022112;28;20206;-74
2021/07/26 01:45:15;;;;;;;8.93;8.13;;;;;;;19.53;87.05;99906.44;5023259;28;20206;-73
2021/07/26 01:47:49;;;;;;;8.30;7.67;;;;;;;19.48;87.12;99890.00;5022683;28;20258;-75
2021/07/26 01:50:19;;;;;;;7.90;7.40;;;;;;;19.52;86.87;99907.38;5023136;28;20265;-74
2021/07/26 01:52:46;;;;;;;8.43;7.90;;;;;;;19.49;86.91;99908.44;5022068;28;20833;-71
2021/07/26 01:55:14;;;;;;;8.50;7.90;;;;;;;19.44;86.94;99906.09;5023168;28;20259;-73
2021/07/26 01:57:40;;;;;;;8.20;7.50;;;;;;;19.48;87.05;99912.00;5022347;28;20236;-74
2021/07/26 02:00:08;;;;;;;8.37;7.77;;;;;;;19.49;87.00;99905.78;5023001;28;20730;-74
2021/07/26 02:02:34;;;;;;;8.50;7.80;;;;;;;19.49;87.16;99892.53;5022576;28;20212;-71
2021/07/26 02:05:00;;;;;;;8.37;7.77;;;;;;;19.49;87.24;99881.97;5022724;28;20204;-73
2021/07/26 02:07:27;;;;;;;10.93;7.90;;;;;;;19.51;87.80;99869.47;5022704;28;20281;-73
2021/07/26 02:09:53;;;;;;;8.13;7.40;;;;;;;19.53;88.27;99842.91;5022543;28;20213;-74
2021/07/26 02:12:21;;;;;;;9.10;7.60;;;;;;;19.53;88.33;99841.09;5022784;28;20236;-73
2021/07/26 02:14:48;;;;;;;8.83;7.43;;;;;;;19.53;88.27;99851.69;5022494;28;20214;-74
2021/07/26 02:17:14;;;;;;;8.13;7.53;;;;;;;19.55;88.05;99863.03;5022061;28;20234;-72
2021/07/26 02:19:40;;;;;;;7.63;6.97;;;;;;;19.53;87.78;99877.31;5022912;28;20216;-74
2021/07/26 02:22:07;;;;;;;7.40;6.80;;;;;;;19.51;85.08;99978.00;5022819;28;20206;-74
2021/07/26 02:24:33;;;;;;;6.83;6.20;;;;;;;19.58;86.09;99938.75;5021882;28;20213;-71
2021/07/26 02:27:00;;;;;;;7.00;6.40;;;;;;;19.63;85.56;99948.09;5022490;28;20259;-73
2021/07/26 02:29:27;;;;;;;6.70;6.10;;;;;;;19.62;85.55;99942.88;5022928;28;20263;-74
2021/07/26 02:31:54;;;;;;;7.47;6.87;;;;;;;19.56;84.94;99977.69;5022271;28;20225;-73
2021/07/26 02:34:20;;;;;;;6.53;6.00;;;;;;;19.57;84.63;99985.56;5021972;28;20243;-72
2021/07/26 02:36:46;;;;;;;6.17;5.77;;;;;;;19.55;84.62;99986.63;5022109;28;20217;-73
2021/07/26 02:39:13;;;;;;;6.37;5.80;;;;;;;19.51;84.92;99979.81;5022098;28;20271;-74
2021/07/26 02:41:42;;;;;;;6.53;5.97;;;;;;;19.50;85.16;99970.16;5023298;28;20680;-76
2021/07/26 02:44:09;;;;;;;6.30;5.90;;;;;;;19.46;85.57;99953.63;5022259;28;20665;-73
2021/07/26 02:46:37;;;;;;;6.93;6.37;;;;;;;19.45;85.66;99947.47;5026405;28;20213;-73
2021/07/26 02:49:03;;;;;;;6.60;6.20;;;;;;;19.45;85.60;99963.34;5026813;28;20229;-74
2021/07/26 02:51:29;;;;;;;6.83;5.87;;;;;;;19.41;85.23;99963.66;5025670;28;20685;-74
2021/07/26 02:53:56;;;;;;;6.23;5.73;;;;;;;19.39;85.22;99969.03;5025873;28;20275;-75
2021/07/26 02:56:23;;;;;;;6.23;5.73;;;;;;;19.36;85.21;99977.16;5026424;28;20205;-75
2021/07/26 02:58:49;;;;;;;5.60;5.17;;;;;;;19.35;84.96;99977.28;5026365;28;20222;-73
2021/07/26 03:01:17;;;;;;;6.37;5.97;;;;;;;19.33;84.77;99995.91;5026493;28;20209;-75
2021/07/26 03:03:45;;;;;;;6.53;6.03;;;;;;;19.34;85.12;99994.09;5025672;28;20207;-74
2021/07/26 03:06:15;;;;;;;7.63;6.93;;;;;;;19.34;84.60;100008.19;5025765;28;20212;-75
2021/07/26 03:08:42;;;;;;;6.13;5.57;;;;;;;19.27;84.51;100025.41;5026073;28;20284;-74
2021/07/26 03:11:10;;;;;;;6.10;5.60;;;;;;;19.24;84.97;100002.59;5025775;28;20202;-71
2021/07/26 03:13:37;;;;;;;6.70;6.20;;;;;;;19.22;84.83;100008.94;5025246;28;20249;-74
2021/07/26 03:16:05;;;;;;;6.43;5.83;;;;;;;19.22;84.38;100023.00;5026485;28;20214;-76
2021/07/26 03:18:32;;;;;;;6.50;6.00;;;;;;;19.25;84.49;100024.66;5026232;28;20228;-74
2021/07/26 03:21:00;;;;;;;5.93;5.47;;;;;;;19.27;84.13;100035.13;5025561;28;20258;-71
2021/07/26 03:23:26;;;;;;;5.80;5.30;;;;;;;19.23;84.33;100034.47;5025392;28;20209;-72
2021/07/26 03:25:53;;;;;;;5.90;5.40;;;;;;;19.19;84.71;100022.38;5025965;28;20278;-75
2021/07/26 03:28:19;;;;;;;6.00;5.50;;;;;;;19.15;84.98;100023.50;5025426;28;20229;-74
2021/07/26 03:30:46;;;;;;;5.50;5.10;;;;;;;19.17;84.90;100027.75;5025462;28;20204;-71
2021/07/26 03:33:12;;;;;;;6.30;5.73;;;;;;;19.14;84.63;100042.97;5025400;28;20235;-72
2021/07/26 03:35:39;;;;;;;6.00;5.50;;;;;;;19.11;85.08;100016.69;5025219;28;20261;-75
2021/07/26 03:38:07;;;;;;;6.50;5.97;;;;;;;19.09;85.22;100013.28;5025836;28;20327;-73
2021/07/26 03:40:34;;;;;;;6.90;6.40;;;;;;;19.09;85.35;100014.16;5025362;28;20217;-74
2021/07/26 03:43:01;;;;;;;5.93;5.53;;;;;;;19.10;86.00;99993.84;5025537;28;20254;-75
2021/07/26 03:45:29;;;;;;;6.07;5.60;;;;;;;19.17;86.10;99985.44;5025893;28;20262;-74
2021/07/26 03:47:59;;;;;;;6.37;5.90;;;;;;;19.19;86.00;99977.41;5024555;28;20233;-75
2021/07/26 03:50:25;;;;;;;6.40;5.90;;;;;;;19.22;86.08;99983.31;5025289;28;20292;-72
2021/07/26 03:52:53;;;;;;;6.37;5.33;;;;;;;19.03;85.06;100017.19;5025076;28;20233;-75
2021/07/26 03:55:22;;;;;;;6.30;5.87;;;;;;;19.08;85.45;99999.22;5025070;28;20220;-75
2021/07/26 03:57:50;;;;;;;7.93;6.47;;;;;;;19.14;86.26;99982.13;5024471;28;20640;-74
2021/07/26 04:00:19;;;;;;;6.30;5.73;;;;;;;19.20;86.50;99979.09;5024467;28;20216;-74
2021/07/26 04:02:50;;;;;;;5.87;5.37;;;;;;;19.19;86.18;99987.97;5024129;28;20209;-75
2021/07/26 04:05:22;;;;;;;5.97;5.47;;;;;;;19.16;86.02;100009.31;5025556;28;20764;-73
2021/07/26 04:07:49;;;;;;;6.47;6.03;;;;;;;19.16;86.38;100007.53;5024760;28;20228;-74
2021/07/26 04:10:16;;;;;;;6.17;5.77;;;;;;;19.14;86.76;99982.13;5025119;28;20210;-76
2021/07/26 04:12:48;;;;;;;6.23;5.67;;;;;;;19.14;86.64;99992.69;5024804;28;20233;-72
2021/07/26 04:15:14;;;;;;;5.57;5.03;;;;;;;19.14;87.03;99979.47;5024562;28;20667;-73
2021/07/26 04:17:40;;;;;;;5.97;5.50;;;;;;;19.14;87.34;99972.38;5024910;28;20240;-73
2021/07/26 04:20:08;;;;;;;6.20;5.63;;;;;;;19.17;87.19;99987.22;5025259;28;20214;-74
2021/07/26 04:22:35;;;;;;;6.30;5.80;;;;;;;19.17;87.27;99977.50;5024712;28;20266;-73
2021/07/26 04:25:01;;;;;;;6.10;5.60;;;;;;;19.16;87.56;99977.56;5025052;28;20288;-72
2021/07/26 04:27:28;;;;;;;5.50;5.10;;;;;;;19.19;87.37;99972.94;5024425;28;20281;-75
2021/07/26 04:29:56;;;;;;;5.97;5.47;;;;;;;19.21;87.42;99980.78;5024599;28;20206;-74
2021/07/26 04:32:22;;;;;;;5.57;5.07;;;;;;;19.23;87.70;99971.81;5024423;28;20240;-74
2021/07/26 04:34:49;;;;;;;5.80;5.30;;;;;;;19.24;88.45;99947.03;5024136;28;20209;-72
2021/07/26 04:37:15;;;;;;;6.23;5.73;;;;;;;19.25;88.61;99943.44;5024448;28;20601;-73
2021/07/26 04:39:42;;;;;;;5.33;4.90;;;;;;;19.26;88.65;99936.34;5024011;28;20439;-74
2021/07/26 04:42:08;;;;;;;5.87;5.37;;;;;;;19.25;88.96;99924.94;5024122;28;20214;-73
2021/07/26 04:44:36;;;;;;;6.10;5.53;;;;;;;19.20;89.24;99907.63;5023936;28;20208;-73
2021/07/26 04:47:05;;;;;;;8.00;5.70;;;;;;;19.16;89.49;99908.78;5024144;28;20274;-74
2021/07/26 04:49:31;;;;;;;6.30;5.70;;;;;;;19.14;89.56;99908.03;5024130;28;20212;-72
2021/07/26 04:51:57;;;;;;;6.17;5.67;;;;;;;19.13;89.79;99901.06;5023752;28;20338;-73
2021/07/26 04:54:24;;;;;;;6.13;5.73;;;;;;;19.16;89.77;99904.34;5024014;28;20233;-75
2021/07/26 04:56:50;;;;;;;6.00;5.47;;;;;;;19.16;89.90;99901.69;5023348;28;20757;-73
2021/07/26 04:59:17;;;;;;;5.93;5.53;;;;;;;19.19;89.81;99906.78;5023884;28;20228;-75
2021/07/26 05:01:43;;;;;;;5.83;5.33;;;;;;;19.19;89.81;99909.44;5023800;28;20721;-75
2021/07/26 05:04:11;;;;;;;5.77;5.43;;;;;;;19.22;89.91;99911.88;5023469;28;20208;-73
2021/07/26 05:06:37;;;;;;;5.63;5.27;;;;;;;19.19;87.52;100001.22;5023562;28;20216;-72
2021/07/26 05:09:04;;;;;;;6.00;5.60;;;;;;;19.29;88.75;99945.91;5023160;28;20244;-75
2021/07/26 05:11:30;;;;;;;6.17;5.70;;;;;;;19.24;89.39;99927.66;5023728;28;20212;-74
2021/07/26 05:13:56;;;;;;;6.13;5.63;;;;;;;19.30;89.45;99921.13;5023522;28;21445;-73
2021/07/26 05:16:23;;;;;;;8.03;5.50;;;;;;;19.28;89.41;99926.53;5024000;28;20219;-75
2021/07/26 05:18:52;;;;;;;6.27;5.77;;;;;;;19.30;89.67;99916.69;5023044;28;20236;-75
2021/07/26 05:21:20;;;;;;;5.90;5.50;;;;;;;19.31;89.53;99923.69;5023764;28;20222;-76
2021/07/26 05:23:46;;;;;;;5.93;5.53;;;;;;;19.36;89.63;99931.31;5023092;28;20216;-74
2021/07/26 05:26:12;;;;;;;5.37;5.07;;;;;;;19.40;89.11;99946.06;5023950;28;20218;-75
2021/07/26 05:28:39;;;;;;;5.97;5.50;;;;;;;19.39;89.00;99942.56;5023060;28;20271;-76
2021/07/26 05:31:05;;;;;;;5.30;4.87;;;;;;;19.44;89.25;99942.28;5023156;28;20730;-72
2021/07/26 05:33:31;;;;;;;6.43;5.37;;;;;;;19.44;89.63;99937.84;5022904;28;20232;-75
2021/07/26 05:35:58;;;;;;;5.57;5.13;;;;;;;19.47;90.31;99907.69;5022936;28;20209;-72
2021/07/26 05:38:26;;;;;;;5.50;5.20;;;;;;;19.50;90.16;99914.56;5022988;28;20251;-73
2021/07/26 05:40:53;;;;;;;5.63;5.23;;;;;;;19.54;90.44;99893.06;5024170;28;20213;-75
2021/07/26 05:43:19;;;;;;;5.57;5.17;;;;;;;19.57;90.55;99902.63;5022768;28;20250;-73
2021/07/26 05:45:46;;;;;;;6.20;5.60;;;;;;;19.56;90.54;99907.09;5018902;28;20220;-75
2021/07/26 05:48:12;;;;;;;6.20;5.60;;;;;;;19.59;90.25;99911.34;5022618;28;20233;-74
2021/07/26 05:50:38;;;;;;;5.87;5.37;;;;;;;19.62;90.21;99912.00;5022576;28;20212;-74
2021/07/26 05:53:05;;;;;;;6.97;6.47;;;;;;;19.65;90.52;99914.41;5021577;28;20490;-73
2021/07/26 05:55:33;;;;;;;6.20;5.80;;;;;;;19.72;90.33;99917.56;5022622;28;20208;-74
2021/07/26 05:58:03;;;;;;;7.93;6.03;;;;;;;19.77;90.20;99910.16;5022446;28;20255;-74
2021/07/26 06:00:37;;;;;;;6.00;5.50;;;;;;;19.76;90.05;99916.41;5022952;28;20213;-75
2021/07/26 06:03:04;;;;;;;6.20;5.80;;;;;;;19.79;89.95;99932.09;5021901;28;20371;-73
2021/07/26 06:05:30;;;;;;;6.20;5.70;;;;;;;19.74;89.71;99933.34;5022629;28;20268;-76
2021/07/26 06:07:56;;;;;;;6.90;6.10;;;;;;;19.78;89.77;99924.22;5022177;28;20217;-75
2021/07/26 06:10:23;;;;;;;6.30;5.90;;;;;;;19.77;89.68;99936.63;5023424;28;20253;-77
2021/07/26 06:12:53;;;;;;;6.33;5.93;;;;;;;19.80;90.10;99917.03;5021510;28;20209;-78
2021/07/26 06:15:19;;;;;;;5.87;5.47;;;;;;;19.74;89.12;99951.88;5023722;28;20220;-77
2021/07/26 06:17:45;;;;;;;5.70;5.30;;;;;;;19.58;89.54;99939.63;5024044;28;20230;-78
2021/07/26 06:20:13;;;;;;;6.43;5.83;;;;;;;19.64;89.73;99927.75;5023286;28;20203;-75
2021/07/26 06:22:40;;;;;;;6.47;5.87;;;;;;;19.63;89.76;99924.25;5022466;28;20693;-77
2021/07/26 06:25:12;;;;;;;6.23;5.67;;;;;;;19.72;89.82;99916.69;5023194;28;20208;-77
2021/07/26 06:27:38;;;;;;;5.73;5.33;;;;;;;19.72;89.22;99952.00;5023837;28;20229;-76
2021/07/26 06:30:07;;;;;;;5.83;5.33;;;;;;;19.75;88.63;99957.06;5022998;28;20209;-77
2021/07/26 06:32:35;;;;;;;5.17;4.87;;;;;;;19.85;87.00;100036.78;5021782;28;20223;-76
2021/07/26 06:35:03;;;;;;;4.47;4.17;;;;;;;19.88;86.44;100047.22;5021320;28;20244;-76
2021/07/26 06:37:29;;;;;;;5.60;5.20;;;;;;;19.92;88.28;99994.84;5021553;28;20285;-77
2021/07/26 06:39:56;;;;;;;5.37;4.90;;;;;;;19.99;88.12;99997.00;5021677;28;20270;-77
2021/07/26 06:42:22;;;;;;;5.70;5.20;;;;;;;19.94;88.28;99980.56;5021455;28;20287;-77
2021/07/26 06:44:48;;;;;;;5.00;4.70;;;;;;;20.01;87.47;100026.06;5021932;28;20267;-77
2021/07/26 06:47:18;;;;;;;5.30;4.90;;;;;;;20.01;88.71;99979.22;5021829;28;21951;-77
2021/07/26 06:49:44;;;;;;;5.00;4.70;;;;;;;20.09;86.13;100100.59;5021690;28;20282;-77
2021/07/26 06:52:11;;;;;;;5.87;5.37;;;;;;;20.10;87.96;100021.94;5020976;28;20684;-77
2021/07/26 06:54:38;;;;;;;5.23;4.83;;;;;;;20.14;88.79;99995.16;5020716;28;20323;-77
2021/07/26 06:57:04;;;;;;;4.67;4.10;;;;;;;20.18;84.81;100117.72;5021934;28;20207;-76
2021/07/26 06:59:31;;;;;;;4.80;4.40;;;;;;;20.26;82.90;100196.72;5022371;28;20213;-77
2021/07/26 07:01:57;;;;;;;4.77;4.40;;;;;;;20.36;86.23;100084.72;5022022;28;20204;-75
2021/07/26 07:04:25;;;;;;;4.67;4.37;;;;;;;20.43;87.51;100024.19;5022291;28;20940;-77
2021/07/26 07:06:51;;;;;;;3.87;3.67;;;;;;;20.43;83.44;100141.72;5021783;28;20280;-76
2021/07/26 07:09:17;;;;;;;4.10;3.80;;;;;;;20.58;82.05;100235.31;5021934;28;20408;-75
2021/07/26 07:11:44;;;;;;;4.00;3.70;;;;;;;20.68;77.79;100359.44;5021852;28;21305;-78
2021/07/26 07:14:10;;;;;;;3.60;3.30;;;;;;;20.84;74.14;100516.72;5021967;28;20223;-77
2021/07/26 07:16:37;;;;;;;3.80;3.50;;;;;;;20.97;74.71;100485.84;5022543;28;20206;-76
2021/07/26 07:19:03;;;;;;;3.20;2.97;;;;;;;21.07;73.85;100520.63;5022172;28;20644;-77
2021/07/26 07:21:32;;;;;;;4.00;3.60;;;;;;;21.03;80.41;100270.47;5021884;28;20214;-78
2021/07/26 07:24:01;;;;;;;2.87;2.67;;;;;;;21.14;71.49;100628.13;5021257;28;20254;-77
2021/07/26 07:26:28;;;;;;;3.37;3.07;;;;;;;21.26;70.85;100626.53;5022115;28;20287;-77
2021/07/26 07:28:55;;;;;;;3.20;3.00;;;;;;;21.37;72.04;100597.53;5021403;28;20244;-76
2021/07/26 07:31:27;;;;;;;3.03;2.83;;;;;;;21.38;68.16;100726.69;5024356;28;20300;-76
2021/07/26 07:33:54;;;;;;;2.87;2.73;;;;;;;21.49;68.75;100725.25;5024680;28;20320;-74
2021/07/26 07:36:21;;;;;;;3.33;3.03;;;;;;;21.51;75.65;100431.19;5025859;28;20220;-77
2021/07/26 07:38:48;;;;;;;3.23;3.03;;;;;;;21.54;76.02;100429.16;5024732;28;20275;-77
2021/07/26 07:41:15;;;;;;;3.60;2.70;;;;;;;21.53;71.57;100570.91;5026142;28;20209;-77
2021/07/26 07:43:41;;;;;;;3.13;2.93;;;;;;;21.64;68.82;100695.06;5025903;28;20201;-77
2021/07/26 07:46:08;;;;;;;2.90;2.70;;;;;;;21.84;68.12;100711.59;5022932;28;20217;-76
2021/07/26 07:48:34;;;;;;;2.40;2.30;;;;;;;21.94;72.10;100590.47;5024454;28;20252;-76
2021/07/26 07:51:02;;;;;;;3.10;2.80;;;;;;;22.00;68.44;100683.09;5025430;28;20220;-77
2021/07/26 07:53:29;;;;;;;2.90;2.70;;;;;;;22.06;66.72;100765.16;5022811;28;20287;-78
2021/07/26 07:55:57;;;;;;;3.20;2.80;;;;;;;22.14;68.70;100693.75;5025404;28;20212;-77
2021/07/26 07:58:23;;;;;;;2.87;2.67;;;;;;;22.18;64.78;100833.53;5024418;28;20238;-76
2021/07/26 08:00:51;;;;;;;2.93;2.50;;;;;;;22.24;65.48;100824.34;5025225;28;20236;-77
2021/07/26 08:03:18;;;;;;;4.13;2.83;;;;;;;22.30;67.57;100722.91;5025296;28;20268;-77
2021/07/26 08:05:44;;;;;;;2.87;2.67;;;;;;;22.38;64.59;100767.66;5024796;28;20216;-77
2021/07/26 08:08:10;;;;;;;2.90;2.70;;;;;;;22.39;65.80;100796.78;5024325;28;20243;-76
2021/07/26 08:10:37;;;;;;;3.13;2.93;;;;;;;22.39;67.38;100676.25;5024821;28;20941;-75
2021/07/26 08:13:05;;;;;;;3.10;2.90;;;;;;;22.41;70.64;100602.50;5024052;28;20201;-77
2021/07/26 08:15:31;;;;;;;2.87;2.67;;;;;;;22.46;63.69;100852.25;5025105;28;20225;-77
2021/07/26 08:17:58;;;;;;;3.63;2.80;;;;;;;22.54;65.94;100780.84;5025656;28;20224;-77
2021/07/26 08:20:24;;;;;;;3.37;3.07;;;;;;;22.58;66.75;100731.78;5025023;28;20205;-78
2021/07/26 08:22:51;;;;;;;3.10;2.90;;;;;;;22.59;66.05;100693.56;5024422;28;20371;-76
2021/07/26 08:25:17;;;;;;;2.67;2.50;;;;;;;22.65;67.47;100734.91;5025716;28;20205;-76
2021/07/26 08:27:48;;;;;;;3.00;2.60;;;;;;;22.64;65.18;100787.25;5025142;28;20221;-75
2021/07/26 08:30:19;;;;;;;2.60;2.37;;;;;;;22.72;65.80;100843.50;5025864;28;20582;-76
2021/07/26 08:32:46;;;;;;;2.93;2.73;;;;;;;22.75;63.63;100864.59;5025145;28;20236;-77
2021/07/26 08:35:12;;;;;;;2.83;2.63;;;;;;;22.85;64.73;100834.75;5024463;28;20641;-76
2021/07/26 08:37:38;;;;;;;2.90;2.37;;;;;;;22.91;60.86;100964.78;5023979;28;20236;-76
2021/07/26 08:40:06;;;;;;;3.00;2.80;;;;;;;22.97;62.57;100893.41;5024933;28;20206;-76
2021/07/26 08:42:33;;;;;;;2.73;2.53;;;;;;;23.05;62.56;100879.59;5022985;28;20209;-74
2021/07/26 08:45:00;;;;;;;3.23;2.93;;;;;;;22.94;70.43;100651.31;5024759;28;20212;-76
2021/07/26 08:47:29;;;;;;;2.93;2.70;;;;;;;22.63;72.05;100473.38;5024990;28;21094;-76
2021/07/26 08:49:58;;;;;;;3.37;3.17;;;;;;;22.69;66.74;100750.56;5025262;28;20214;-77
2021/07/26 08:52:27;;;;;;;3.20;3.00;;;;;;;22.84;72.93;100479.88;5024569;28;21177;-77
2021/07/26 08:54:56;;;;;;;3.33;3.03;;;;;;;22.90;70.34;100631.19;5024122;28;20238;-78
2021/07/26 08:57:22;;;;;;;3.07;2.87;;;;;;;22.89;68.38;100658.75;5023634;28;20237;-77
2021/07/26 08:59:49;;;;;;;3.63;3.33;;;;;;;22.98;63.90;100822.34;5023787;28;20212;-76
2021/07/26 09:02:15;;;;;;;3.00;2.80;;;;;;;23.13;62.52;100905.75;5024214;28;20209;-77
2021/07/26 09:04:43;;;;;;;3.37;3.07;;;;;;;23.23;61.43;100928.19;5023993;28;20197;-76
2021/07/26 09:07:10;;;;;;;2.90;2.70;;;;;;;23.31;61.25;100941.00;5023993;28;20216;-76
2021/07/26 09:09:46;;;;;;;2.93;2.73;;;;;;;23.38;66.43;100759.34;5023950;28;20294;-77
2021/07/26 09:12:28;;;;;;;3.63;3.43;;;;;;;23.42;61.74;100887.03;5023455;28;20280;-76
2021/07/26 09:14:55;;;;;;;3.23;3.03;;;;;;;23.44;62.36;100890.44;5023120;28;20220;-76
2021/07/26 09:17:21;;;;;;;3.53;3.23;;;;;;;23.44;64.12;100799.84;5023813;28;20269;-78
2021/07/26 09:20:00;;;;;;;3.47;3.17;;;;;;;23.40;71.15;100541.63;5024080;28;20202;-78
2021/07/26 09:22:31;;;;;;;3.80;3.37;;;;;;;23.39;69.65;100587.03;5023652;28;20216;-78
2021/07/26 09:25:20;;;;;;;5.20;2.97;;;;;;;23.49;68.92;100597.88;5022758;28;20215;-77
2021/07/26 09:28:05;;;;;;;3.40;3.10;;;;;;;23.60;66.84;100654.78;5023150;28;20226;-77
2021/07/26 09:30:37;;;;;;;3.60;3.23;;;;;;;23.68;63.32;100808.00;5023579;28;20581;-78
2021/07/26 09:33:05;;;;;;;4.20;3.90;;;;;;;23.63;64.90;100795.00;5023294;28;20203;-77
2021/07/26 09:35:32;;;;;;;3.20;3.03;;;;;;;23.55;64.75;100787.50;5023321;28;20229;-77
2021/07/26 09:38:03;;;;;;;3.70;3.40;;;;;;;23.39;63.71;100822.34;5023373;28;20681;-75
2021/07/26 09:40:33;;;;;;;3.77;3.47;;;;;;;23.28;72.87;100449.25;5022372;28;20711;-75
2021/07/26 09:43:18;;;;;;;3.63;3.33;;;;;;;23.17;73.68;100458.03;5022416;28;20209;-78
2021/07/26 09:45:44;;;;;;;3.80;3.50;;;;;;;23.22;69.60;100566.91;5023760;28;20204;-78
2021/07/26 09:48:12;;;;;;;3.93;3.63;;;;;;;23.22;71.69;100489.66;5023387;28;20612;-79
2021/07/26 09:50:41;;;;;;;3.07;2.87;;;;;;;23.29;61.92;100874.50;5023532;28;20674;-77
2021/07/26 09:53:09;;;;;;;3.03;2.77;;;;;;;23.55;59.32;101023.84;5023400;28;20202;-77
2021/07/26 09:55:36;;;;;;;3.03;2.70;;;;;;;23.86;57.09;101120.53;5023301;28;20228;-76
2021/07/26 09:58:04;;;;;;;3.47;3.17;;;;;;;24.04;57.18;101067.81;5023787;28;20265;-77
2021/07/26 10:00:31;;;;;;;3.10;2.90;;;;;;;24.12;58.88;100999.69;5023727;28;20198;-78
2021/07/26 10:02:58;;;;;;;3.40;3.13;;;;;;;24.25;57.47;101063.75;5022844;28;20206;-78
2021/07/26 10:05:27;;;;;;;3.07;2.87;;;;;;;24.32;57.16;101088.19;5022940;28;20212;-76
2021/07/26 10:07:56;;;;;;;2.93;2.73;;;;;;;24.39;56.15;101109.03;5022260;28;20223;-77
2021/07/26 10:10:22;;;;;;;3.70;2.77;;;;;;;24.41;58.29;101012.00;5022397;28;20265;-77
2021/07/26 10:12:51;;;;;;;3.23;2.90;;;;;;;24.39;60.00;100918.72;5022639;28;20202;-78
2021/07/26 10:15:19;;;;;;;3.23;2.93;;;;;;;24.24;57.42;101029.16;5022878;28;20242;-77
2021/07/26 10:17:46;;;;;;;3.03;2.80;;;;;;;24.20;57.44;101023.16;5022122;28;20220;-76
2021/07/26 10:20:14;;;;;;;2.83;2.63;;;;;;;24.13;57.96;101003.22;5023693;28;20242;-74
2021/07/26 10:22:42;;;;;;;2.73;2.53;;;;;;;24.26;55.91;101057.47;5022043;28;20285;-75
2021/07/26 10:25:17;;;;;;;3.03;2.83;;;;;;;24.49;56.02;101090.59;5022263;28;20354;-78
2021/07/26 10:27:46;;;;;;;3.40;2.67;;;;;;;24.67;62.40;100776.16;5021948;28;20293;-78
2021/07/26 10:30:31;;;;;;;3.00;2.80;;;;;;;24.65;60.53;100838.66;5022847;28;20203;-76
2021/07/26 10:33:00;;;;;;;3.77;2.60;;;;;;;24.70;55.97;101079.47;5021483;28;20260;-77
2021/07/26 10:35:37;;;;;;;3.00;2.33;;;;;;;24.89;57.30;101033.66;5022805;28;21377;-77
2021/07/26 10:38:05;;;;;;;2.53;2.43;;;;;;;24.89;53.00;101217.94;5021928;28;20270;-77
2021/07/26 10:40:38;;;;;;;2.70;2.50;;;;;;;24.91;55.71;101087.81;5021713;28;20209;-78
2021/07/26 10:43:05;;;;;;;3.17;2.70;;;;;;;24.89;61.04;100849.38;5021057;28;20210;-77
2021/07/26 10:45:59;;;;;;;2.97;2.77;;;;;;;24.77;61.83;100883.16;5022410;28;20210;-76
2021/07/26 10:48:33;;;;;;;3.53;3.23;;;;;;;24.72;63.94;100768.69;5021945;28;20311;-77
2021/07/26 10:51:00;;;;;;;3.03;2.80;;;;;;;24.62;64.93;100732.97;5022383;28;20206;-77
2021/07/26 10:53:58;;;;;;;2.90;2.70;;;;;;;24.64;66.18;100612.69;5020937;28;20270;-76
2021/07/26 10:56:26;;;;;;;2.93;2.73;;;;;;;24.46;64.30;100719.84;5022422;28;20316;-78
2021/07/26 10:59:07;;;;;;;5.47;3.03;;;;;;;24.51;71.21;100442.81;5022983;28;20363;-76
2021/07/26 11:01:38;;;;;;;3.03;2.77;;;;;;;24.64;70.13;100457.88;5022891;28;20210;-77
2021/07/26 11:04:04;;;;;;;3.60;3.30;;;;;;;24.75;73.30;100346.59;5022280;28;20263;-77
2021/07/26 11:06:59;;;;;;;3.40;3.10;;;;;;;24.94;70.54;100430.59;5024770;28;20210;-76
2021/07/26 11:09:45;;;;;;;2.43;2.33;;;;;;;25.12;65.34;100658.88;5024952;28;21053;-78
2021/07/26 11:12:14;;;;;;;2.93;2.60;;;;;;;25.28;63.18;100762.78;5025670;28;20605;-76
2021/07/26 11:15:13;;;;;;;3.00;2.80;;;;;;;25.46;62.57;100733.78;5025794;28;20234;-76
2021/07/26 11:18:31;;;;;;;2.70;2.50;;;;;;;25.48;57.89;100990.31;5024956;28;20233;-77
2021/07/26 11:21:12;;;;;;;2.90;2.70;;;;;;;25.72;60.59;100880.69;5025989;28;20202;-75
2021/07/26 11:23:44;;;;;;;2.80;2.60;;;;;;;25.95;61.57;100796.88;5025802;28;20636;-77
2021/07/26 11:26:18;;;;;;;3.20;2.90;;;;;;;26.15;61.77;100768.56;5025078;28;20215;-77
2021/07/26 11:28:47;;;;;;;2.30;2.20;;;;;;;26.23;54.30;101112.34;5024214;28;20232;-77
2021/07/26 11:31:21;;;;;;;2.90;2.70;;;;;;;26.51;51.20;101223.59;5025533;28;20203;-77
2021/07/26 11:33:47;;;;;;;2.60;2.40;;;;;;;26.69;50.95;101250.88;5024883;28;20226;-76
2021/07/26 11:36:13;;;;;;;3.20;3.00;;;;;;;27.08;54.36;101054.06;5025790;28;20230;-78